sensor_id;sensor_type;location;lat;lon;timestamp;P1;durP1;ratioP1;P2;durP2;ratioP2
10410;SDS011;5251;52.112;8.606;2022-11-12T00:02:08;11.68;;;7.15;;
10410;SDS011;5251;52.112;8.606;2022-11-12T00:04:34;9.90;;;6.32;;
10410;SDS011;5251;52.112;8.606;2022-11-12T00:06:59;7.30;;;5.25;;
10410;SDS011;5251;52.112;8.606;2022-11-12T00:09:25;8.02;;;5.05;;
10410;SDS011;5251;52.112;8.606;2022-11-12T00:11:50;6.18;;;5.20;;
10410;SDS011;5251;52.112;8.606;2022-11-12T00:14:16;5.78;;;4.75;;
10410;SDS011;5251;52.112;8.606;2022-11-12T00:16:41;7.18;;;4.80;;
10410;SDS011;5251;52.112;8.606;2022-11-12T00:19:07;5.65;;;4.72;;
10410;SDS011;5251;52.112;8.606;2022-11-12T00:21:32;6.40;;;4.60;;
10410;SDS011;5251;52.112;8.606;2022-11-12T00:23:58;6.88;;;5.10;;
10410;SDS011;5251;52.112;8.606;2022-11-12T00:26:24;6.70;;;4.30;;
10410;SDS011;5251;52.112;8.606;2022-11-12T00:28:49;5.22;;;4.30;;
10410;SDS011;5251;52.112;8.606;2022-11-12T00:31:15;5.35;;;4.57;;
10410;SDS011;5251;52.112;8.606;2022-11-12T00:33:41;5.45;;;4.28;;
10410;SDS011;5251;52.112;8.606;2022-11-12T00:36:08;4.70;;;4.00;;
10410;SDS011;5251;52.112;8.606;2022-11-12T00:38:35;5.30;;;4.45;;
10410;SDS011;5251;52.112;8.606;2022-11-12T00:41:00;5.05;;;3.90;;
10410;SDS011;5251;52.112;8.606;2022-11-12T00:43:26;6.00;;;3.88;;
10410;SDS011;5251;52.112;8.606;2022-11-12T00:45:52;5.22;;;4.35;;
10410;SDS011;5251;52.112;8.606;2022-11-12T00:48:17;7.32;;;4.55;;
10410;SDS011;5251;52.112;8.606;2022-11-12T00:50:43;6.10;;;4.53;;
10410;SDS011;5251;52.112;8.606;2022-11-12T00:53:08;5.55;;;4.20;;
10410;SDS011;5251;52.112;8.606;2022-11-12T00:55:34;5.82;;;4.20;;
10410;SDS011;5251;52.112;8.606;2022-11-12T00:57:59;8.00;;;4.60;;
10410;SDS011;5251;52.112;8.606;2022-11-12T01:00:25;5.53;;;4.38;;
10410;SDS011;5251;52.112;8.606;2022-11-12T01:02:51;5.28;;;3.95;;
10410;SDS011;5251;52.112;8.606;2022-11-12T01:05:17;5.35;;;4.07;;
10410;SDS011;5251;52.112;8.606;2022-11-12T01:07:43;5.88;;;4.07;;
10410;SDS011;5251;52.112;8.606;2022-11-12T01:10:10;5.50;;;4.20;;
10410;SDS011;5251;52.112;8.606;2022-11-12T01:12:36;4.10;;;3.70;;
10410;SDS011;5251;52.112;8.606;2022-11-12T01:15:02;5.18;;;4.47;;
10410;SDS011;5251;52.112;8.606;2022-11-12T01:17:29;5.95;;;4.13;;
10410;SDS011;5251;52.112;8.606;2022-11-12T01:19:54;5.63;;;4.40;;
10410;SDS011;5251;52.112;8.606;2022-11-12T01:22:20;4.40;;;3.75;;
10410;SDS011;5251;52.112;8.606;2022-11-12T01:24:46;6.82;;;4.20;;
10410;SDS011;5251;52.112;8.606;2022-11-12T01:27:11;5.03;;;4.38;;
10410;SDS011;5251;52.112;8.606;2022-11-12T01:29:37;5.53;;;4.43;;
10410;SDS011;5251;52.112;8.606;2022-11-12T01:32:02;6.80;;;4.50;;
10410;SDS011;5251;52.112;8.606;2022-11-12T01:34:28;5.38;;;4.60;;
10410;SDS011;5251;52.112;8.606;2022-11-12T01:36:54;5.95;;;4.57;;
10410;SDS011;5251;52.112;8.606;2022-11-12T01:39:20;5.32;;;4.30;;
10410;SDS011;5251;52.112;8.606;2022-11-12T01:41:45;4.93;;;4.43;;
10410;SDS011;5251;52.112;8.606;2022-11-12T01:44:16;7.65;;;4.68;;
10410;SDS011;5251;52.112;8.606;2022-11-12T01:49:29;5.82;;;4.05;;
10410;SDS011;5251;52.112;8.606;2022-11-12T01:52:02;7.72;;;5.00;;
10410;SDS011;5251;52.112;8.606;2022-11-12T01:54:48;5.72;;;4.53;;
10410;SDS011;5251;52.112;8.606;2022-11-12T01:57:17;6.03;;;5.18;;
10410;SDS011;5251;52.112;8.606;2022-11-12T01:59:48;8.43;;;5.20;;
10410;SDS011;5251;52.112;8.606;2022-11-12T02:02:15;8.32;;;4.75;;
10410;SDS011;5251;52.112;8.606;2022-11-12T02:04:41;7.60;;;5.28;;
10410;SDS011;5251;52.112;8.606;2022-11-12T02:07:07;6.18;;;4.72;;
10410;SDS011;5251;52.112;8.606;2022-11-12T02:09:34;6.85;;;5.20;;
10410;SDS011;5251;52.112;8.606;2022-11-12T02:12:00;5.82;;;4.53;;
10410;SDS011;5251;52.112;8.606;2022-11-12T02:14:26;6.55;;;4.75;;
10410;SDS011;5251;52.112;8.606;2022-11-12T02:16:52;5.60;;;4.57;;
10410;SDS011;5251;52.112;8.606;2022-11-12T02:19:18;5.63;;;4.72;;
10410;SDS011;5251;52.112;8.606;2022-11-12T02:21:44;7.43;;;4.75;;
10410;SDS011;5251;52.112;8.606;2022-11-12T02:26:36;6.95;;;4.85;;
10410;SDS011;5251;52.112;8.606;2022-11-12T02:29:05;7.28;;;5.10;;
10410;SDS011;5251;52.112;8.606;2022-11-12T02:31:31;6.80;;;5.18;;
10410;SDS011;5251;52.112;8.606;2022-11-12T02:33:57;5.60;;;4.68;;
10410;SDS011;5251;52.112;8.606;2022-11-12T02:36:22;6.60;;;4.82;;
10410;SDS011;5251;52.112;8.606;2022-11-12T02:38:48;6.45;;;4.85;;
10410;SDS011;5251;52.112;8.606;2022-11-12T02:41:14;6.28;;;4.72;;
10410;SDS011;5251;52.112;8.606;2022-11-12T02:43:40;5.75;;;4.72;;
10410;SDS011;5251;52.112;8.606;2022-11-12T02:46:06;6.38;;;5.30;;
10410;SDS011;5251;52.112;8.606;2022-11-12T02:48:31;6.28;;;4.40;;
10410;SDS011;5251;52.112;8.606;2022-11-12T02:50:57;6.10;;;4.72;;
10410;SDS011;5251;52.112;8.606;2022-11-12T02:53:23;5.90;;;4.75;;
10410;SDS011;5251;52.112;8.606;2022-11-12T02:55:48;6.00;;;4.60;;
10410;SDS011;5251;52.112;8.606;2022-11-12T02:58:14;6.38;;;4.78;;
10410;SDS011;5251;52.112;8.606;2022-11-12T03:00:40;8.02;;;5.30;;
10410;SDS011;5251;52.112;8.606;2022-11-12T03:03:05;6.00;;;4.60;;
10410;SDS011;5251;52.112;8.606;2022-11-12T03:05:32;6.35;;;4.90;;
10410;SDS011;5251;52.112;8.606;2022-11-12T03:08:00;6.13;;;4.78;;
10410;SDS011;5251;52.112;8.606;2022-11-12T03:10:27;5.85;;;4.88;;
10410;SDS011;5251;52.112;8.606;2022-11-12T03:12:55;6.13;;;4.70;;
10410;SDS011;5251;52.112;8.606;2022-11-12T03:15:22;6.28;;;5.35;;
10410;SDS011;5251;52.112;8.606;2022-11-12T03:17:47;6.15;;;4.90;;
10410;SDS011;5251;52.112;8.606;2022-11-12T03:20:13;7.13;;;5.47;;
10410;SDS011;5251;52.112;8.606;2022-11-12T03:22:39;7.60;;;4.75;;
10410;SDS011;5251;52.112;8.606;2022-11-12T03:25:05;6.45;;;5.10;;
10410;SDS011;5251;52.112;8.606;2022-11-12T03:27:32;7.72;;;5.03;;
10410;SDS011;5251;52.112;8.606;2022-11-12T03:29:57;6.28;;;5.53;;
10410;SDS011;5251;52.112;8.606;2022-11-12T03:32:23;6.93;;;5.40;;
10410;SDS011;5251;52.112;8.606;2022-11-12T03:34:49;7.32;;;5.30;;
10410;SDS011;5251;52.112;8.606;2022-11-12T03:37:14;6.20;;;4.95;;
10410;SDS011;5251;52.112;8.606;2022-11-12T03:39:40;6.05;;;5.13;;
10410;SDS011;5251;52.112;8.606;2022-11-12T03:42:05;6.80;;;5.30;;
10410;SDS011;5251;52.112;8.606;2022-11-12T03:44:31;6.72;;;5.47;;
10410;SDS011;5251;52.112;8.606;2022-11-12T03:46:57;9.27;;;6.22;;
10410;SDS011;5251;52.112;8.606;2022-11-12T03:49:22;7.85;;;5.70;;
10410;SDS011;5251;52.112;8.606;2022-11-12T03:51:48;7.03;;;5.57;;
10410;SDS011;5251;52.112;8.606;2022-11-12T03:54:14;7.45;;;5.60;;
10410;SDS011;5251;52.112;8.606;2022-11-12T03:56:39;8.18;;;5.57;;
10410;SDS011;5251;52.112;8.606;2022-11-12T03:59:05;7.40;;;5.80;;
10410;SDS011;5251;52.112;8.606;2022-11-12T04:01:31;8.15;;;5.75;;
10410;SDS011;5251;52.112;8.606;2022-11-12T04:03:56;6.97;;;5.55;;
10410;SDS011;5251;52.112;8.606;2022-11-12T04:06:22;6.90;;;5.38;;
10410;SDS011;5251;52.112;8.606;2022-11-12T04:09:06;6.97;;;5.85;;
10410;SDS011;5251;52.112;8.606;2022-11-12T04:11:32;8.20;;;5.93;;
10410;SDS011;5251;52.112;8.606;2022-11-12T04:13:57;7.60;;;5.80;;
10410;SDS011;5251;52.112;8.606;2022-11-12T04:16:24;8.13;;;5.68;;
10410;SDS011;5251;52.112;8.606;2022-11-12T04:19:12;7.35;;;5.38;;
10410;SDS011;5251;52.112;8.606;2022-11-12T04:22:01;6.20;;;5.18;;
10410;SDS011;5251;52.112;8.606;2022-11-12T04:24:37;6.68;;;5.35;;
10410;SDS011;5251;52.112;8.606;2022-11-12T04:27:27;6.60;;;5.60;;
10410;SDS011;5251;52.112;8.606;2022-11-12T04:29:54;7.28;;;5.70;;
10410;SDS011;5251;52.112;8.606;2022-11-12T04:32:46;7.55;;;5.85;;
10410;SDS011;5251;52.112;8.606;2022-11-12T04:35:13;6.82;;;5.70;;
10410;SDS011;5251;52.112;8.606;2022-11-12T04:37:39;7.80;;;5.60;;
10410;SDS011;5251;52.112;8.606;2022-11-12T04:40:29;9.60;;;6.18;;
10410;SDS011;5251;52.112;8.606;2022-11-12T04:43:14;6.60;;;5.40;;
10410;SDS011;5251;52.112;8.606;2022-11-12T04:45:59;7.47;;;5.95;;
10410;SDS011;5251;52.112;8.606;2022-11-12T04:48:28;6.72;;;5.47;;
10410;SDS011;5251;52.112;8.606;2022-11-12T04:50:57;7.68;;;5.50;;
10410;SDS011;5251;52.112;8.606;2022-11-12T04:53:25;7.15;;;5.43;;
10410;SDS011;5251;52.112;8.606;2022-11-12T04:55:52;7.18;;;5.45;;
10410;SDS011;5251;52.112;8.606;2022-11-12T04:58:19;8.85;;;5.90;;
10410;SDS011;5251;52.112;8.606;2022-11-12T05:00:45;8.38;;;5.70;;
10410;SDS011;5251;52.112;8.606;2022-11-12T05:03:11;6.85;;;5.50;;
10410;SDS011;5251;52.112;8.606;2022-11-12T05:05:37;7.47;;;5.40;;
10410;SDS011;5251;52.112;8.606;2022-11-12T05:08:03;7.03;;;5.22;;
10410;SDS011;5251;52.112;8.606;2022-11-12T05:10:29;9.98;;;5.60;;
10410;SDS011;5251;52.112;8.606;2022-11-12T05:12:54;7.55;;;5.78;;
10410;SDS011;5251;52.112;8.606;2022-11-12T05:15:20;7.20;;;6.00;;
10410;SDS011;5251;52.112;8.606;2022-11-12T05:17:46;9.05;;;6.45;;
10410;SDS011;5251;52.112;8.606;2022-11-12T05:20:12;8.63;;;6.40;;
10410;SDS011;5251;52.112;8.606;2022-11-12T05:22:38;9.38;;;6.93;;
10410;SDS011;5251;52.112;8.606;2022-11-12T05:25:04;9.38;;;6.72;;
10410;SDS011;5251;52.112;8.606;2022-11-12T05:27:31;9.18;;;7.00;;
10410;SDS011;5251;52.112;8.606;2022-11-12T05:29:57;9.52;;;6.75;;
10410;SDS011;5251;52.112;8.606;2022-11-12T05:32:23;9.02;;;6.60;;
10410;SDS011;5251;52.112;8.606;2022-11-12T05:34:48;9.80;;;7.05;;
10410;SDS011;5251;52.112;8.606;2022-11-12T05:37:14;9.43;;;7.25;;
10410;SDS011;5251;52.112;8.606;2022-11-12T05:39:40;8.77;;;6.57;;
10410;SDS011;5251;52.112;8.606;2022-11-12T05:42:05;8.45;;;6.57;;
10410;SDS011;5251;52.112;8.606;2022-11-12T05:44:31;8.98;;;6.65;;
10410;SDS011;5251;52.112;8.606;2022-11-12T05:46:57;9.63;;;6.85;;
10410;SDS011;5251;52.112;8.606;2022-11-12T05:49:23;9.27;;;7.18;;
10410;SDS011;5251;52.112;8.606;2022-11-12T05:51:49;10.10;;;6.82;;
10410;SDS011;5251;52.112;8.606;2022-11-12T05:54:15;8.73;;;6.80;;
10410;SDS011;5251;52.112;8.606;2022-11-12T05:56:41;10.43;;;7.53;;
10410;SDS011;5251;52.112;8.606;2022-11-12T05:59:07;9.45;;;7.20;;
10410;SDS011;5251;52.112;8.606;2022-11-12T06:01:34;7.88;;;6.30;;
10410;SDS011;5251;52.112;8.606;2022-11-12T06:04:07;10.45;;;6.85;;
10410;SDS011;5251;52.112;8.606;2022-11-12T06:06:39;9.43;;;6.40;;
10410;SDS011;5251;52.112;8.606;2022-11-12T06:09:05;9.63;;;6.97;;
10410;SDS011;5251;52.112;8.606;2022-11-12T06:11:31;10.25;;;7.18;;
10410;SDS011;5251;52.112;8.606;2022-11-12T06:13:58;13.02;;;7.13;;
10410;SDS011;5251;52.112;8.606;2022-11-12T06:16:23;10.15;;;7.07;;
10410;SDS011;5251;52.112;8.606;2022-11-12T06:18:49;8.73;;;6.82;;
10410;SDS011;5251;52.112;8.606;2022-11-12T06:21:15;8.95;;;6.85;;
10410;SDS011;5251;52.112;8.606;2022-11-12T06:23:44;11.52;;;7.82;;
10410;SDS011;5251;52.112;8.606;2022-11-12T06:26:10;9.50;;;7.18;;
10410;SDS011;5251;52.112;8.606;2022-11-12T06:28:36;10.30;;;7.50;;
10410;SDS011;5251;52.112;8.606;2022-11-12T06:31:02;10.95;;;8.40;;
10410;SDS011;5251;52.112;8.606;2022-11-12T06:33:27;12.32;;;8.07;;
10410;SDS011;5251;52.112;8.606;2022-11-12T06:35:57;11.07;;;8.48;;
10410;SDS011;5251;52.112;8.606;2022-11-12T06:38:27;11.80;;;7.72;;
10410;SDS011;5251;52.112;8.606;2022-11-12T06:40:54;11.32;;;8.02;;
10410;SDS011;5251;52.112;8.606;2022-11-12T06:43:20;11.95;;;8.48;;
10410;SDS011;5251;52.112;8.606;2022-11-12T06:45:45;11.30;;;7.85;;
10410;SDS011;5251;52.112;8.606;2022-11-12T06:48:11;12.52;;;9.23;;
10410;SDS011;5251;52.112;8.606;2022-11-12T06:50:36;13.23;;;9.43;;
10410;SDS011;5251;52.112;8.606;2022-11-12T06:53:02;12.07;;;9.88;;
10410;SDS011;5251;52.112;8.606;2022-11-12T06:55:27;14.18;;;10.00;;
10410;SDS011;5251;52.112;8.606;2022-11-12T06:57:53;12.93;;;9.48;;
10410;SDS011;5251;52.112;8.606;2022-11-12T07:00:19;11.20;;;8.13;;
10410;SDS011;5251;52.112;8.606;2022-11-12T07:02:45;11.10;;;8.07;;
10410;SDS011;5251;52.112;8.606;2022-11-12T07:05:10;10.77;;;8.25;;
10410;SDS011;5251;52.112;8.606;2022-11-12T07:07:36;12.95;;;9.02;;
10410;SDS011;5251;52.112;8.606;2022-11-12T07:10:01;10.82;;;8.43;;
10410;SDS011;5251;52.112;8.606;2022-11-12T07:12:27;12.25;;;9.05;;
10410;SDS011;5251;52.112;8.606;2022-11-12T07:14:53;11.77;;;8.80;;
10410;SDS011;5251;52.112;8.606;2022-11-12T07:17:19;12.07;;;8.93;;
10410;SDS011;5251;52.112;8.606;2022-11-12T07:19:44;13.20;;;8.90;;
10410;SDS011;5251;52.112;8.606;2022-11-12T07:22:10;11.70;;;8.70;;
10410;SDS011;5251;52.112;8.606;2022-11-12T07:24:36;11.90;;;8.70;;
10410;SDS011;5251;52.112;8.606;2022-11-12T07:27:01;12.23;;;8.80;;
10410;SDS011;5251;52.112;8.606;2022-11-12T07:29:27;11.20;;;8.60;;
10410;SDS011;5251;52.112;8.606;2022-11-12T07:31:53;11.50;;;8.43;;
10410;SDS011;5251;52.112;8.606;2022-11-12T07:34:18;11.63;;;8.75;;
10410;SDS011;5251;52.112;8.606;2022-11-12T07:36:44;12.68;;;9.50;;
10410;SDS011;5251;52.112;8.606;2022-11-12T07:39:09;12.15;;;9.10;;
10410;SDS011;5251;52.112;8.606;2022-11-12T07:41:37;12.07;;;8.85;;
10410;SDS011;5251;52.112;8.606;2022-11-12T07:44:02;11.40;;;8.18;;
10410;SDS011;5251;52.112;8.606;2022-11-12T07:46:28;10.75;;;8.35;;
10410;SDS011;5251;52.112;8.606;2022-11-12T07:48:54;9.48;;;7.95;;
10410;SDS011;5251;52.112;8.606;2022-11-12T07:53:47;10.82;;;7.97;;
10410;SDS011;5251;52.112;8.606;2022-11-12T07:56:15;11.32;;;8.02;;
10410;SDS011;5251;52.112;8.606;2022-11-12T07:58:42;9.43;;;7.40;;
10410;SDS011;5251;52.112;8.606;2022-11-12T08:03:55;10.18;;;8.18;;
10410;SDS011;5251;52.112;8.606;2022-11-12T08:06:21;11.50;;;10.25;;
10410;SDS011;5251;52.112;8.606;2022-11-12T08:08:50;11.32;;;8.82;;
10410;SDS011;5251;52.112;8.606;2022-11-12T08:11:16;11.95;;;9.20;;
10410;SDS011;5251;52.112;8.606;2022-11-12T08:13:42;12.07;;;9.15;;
10410;SDS011;5251;52.112;8.606;2022-11-12T08:16:08;13.65;;;9.32;;
10410;SDS011;5251;52.112;8.606;2022-11-12T08:18:33;11.10;;;9.10;;
10410;SDS011;5251;52.112;8.606;2022-11-12T08:21:03;11.15;;;8.95;;
10410;SDS011;5251;52.112;8.606;2022-11-12T08:23:30;11.57;;;8.88;;
10410;SDS011;5251;52.112;8.606;2022-11-12T08:25:56;11.07;;;8.25;;
10410;SDS011;5251;52.112;8.606;2022-11-12T08:28:26;13.82;;;9.10;;
10410;SDS011;5251;52.112;8.606;2022-11-12T08:30:53;11.70;;;8.70;;
10410;SDS011;5251;52.112;8.606;2022-11-12T08:33:18;12.07;;;8.63;;
10410;SDS011;5251;52.112;8.606;2022-11-12T08:35:44;12.10;;;9.13;;
10410;SDS011;5251;52.112;8.606;2022-11-12T08:38:09;10.98;;;8.75;;
10410;SDS011;5251;52.112;8.606;2022-11-12T08:40:37;10.98;;;8.93;;
10410;SDS011;5251;52.112;8.606;2022-11-12T08:43:04;12.48;;;9.70;;
10410;SDS011;5251;52.112;8.606;2022-11-12T08:45:31;11.98;;;9.02;;
10410;SDS011;5251;52.112;8.606;2022-11-12T08:47:58;13.25;;;9.98;;
10410;SDS011;5251;52.112;8.606;2022-11-12T08:50:25;12.02;;;9.48;;
10410;SDS011;5251;52.112;8.606;2022-11-12T08:52:51;12.07;;;9.60;;
10410;SDS011;5251;52.112;8.606;2022-11-12T08:55:17;12.43;;;9.73;;
10410;SDS011;5251;52.112;8.606;2022-11-12T08:57:42;12.35;;;9.52;;
10410;SDS011;5251;52.112;8.606;2022-11-12T09:00:09;11.88;;;9.77;;
10410;SDS011;5251;52.112;8.606;2022-11-12T09:02:37;14.50;;;10.02;;
10410;SDS011;5251;52.112;8.606;2022-11-12T09:05:03;12.70;;;9.23;;
10410;SDS011;5251;52.112;8.606;2022-11-12T09:07:29;12.57;;;9.63;;
10410;SDS011;5251;52.112;8.606;2022-11-12T09:09:55;12.32;;;9.63;;
10410;SDS011;5251;52.112;8.606;2022-11-12T09:12:20;11.25;;;8.85;;
10410;SDS011;5251;52.112;8.606;2022-11-12T09:14:46;12.85;;;8.90;;
10410;SDS011;5251;52.112;8.606;2022-11-12T09:17:12;12.20;;;9.65;;
10410;SDS011;5251;52.112;8.606;2022-11-12T09:19:38;14.40;;;10.13;;
10410;SDS011;5251;52.112;8.606;2022-11-12T09:22:04;13.05;;;9.77;;
10410;SDS011;5251;52.112;8.606;2022-11-12T09:24:29;13.35;;;9.18;;
10410;SDS011;5251;52.112;8.606;2022-11-12T09:26:55;13.75;;;9.82;;
10410;SDS011;5251;52.112;8.606;2022-11-12T09:29:20;13.13;;;10.32;;
10410;SDS011;5251;52.112;8.606;2022-11-12T09:31:46;12.07;;;9.52;;
10410;SDS011;5251;52.112;8.606;2022-11-12T09:34:12;11.02;;;9.27;;
10410;SDS011;5251;52.112;8.606;2022-11-12T09:36:38;15.65;;;11.25;;
10410;SDS011;5251;52.112;8.606;2022-11-12T09:39:03;26.77;;;18.63;;
10410;SDS011;5251;52.112;8.606;2022-11-12T09:41:39;25.35;;;18.23;;
10410;SDS011;5251;52.112;8.606;2022-11-12T09:44:25;18.33;;;13.35;;
10410;SDS011;5251;52.112;8.606;2022-11-12T09:46:54;17.25;;;12.90;;
10410;SDS011;5251;52.112;8.606;2022-11-12T09:52:03;14.23;;;11.20;;
10410;SDS011;5251;52.112;8.606;2022-11-12T09:54:49;19.17;;;14.88;;
10410;SDS011;5251;52.112;8.606;2022-11-12T09:57:18;16.13;;;12.95;;
10410;SDS011;5251;52.112;8.606;2022-11-12T09:59:44;33.05;;;23.00;;
10410;SDS011;5251;52.112;8.606;2022-11-12T10:10:11;11.98;;;9.50;;
10410;SDS011;5251;52.112;8.606;2022-11-12T10:12:45;11.68;;;9.43;;
10410;SDS011;5251;52.112;8.606;2022-11-12T10:24:15;10.38;;;8.75;;
10410;SDS011;5251;52.112;8.606;2022-11-12T10:26:40;11.68;;;8.95;;
10410;SDS011;5251;52.112;8.606;2022-11-12T10:31:35;11.77;;;9.55;;
10410;SDS011;5251;52.112;8.606;2022-11-12T10:34:13;9.75;;;7.88;;
10410;SDS011;5251;52.112;8.606;2022-11-12T10:36:41;10.57;;;8.68;;
10410;SDS011;5251;52.112;8.606;2022-11-12T10:39:26;10.43;;;8.38;;
10410;SDS011;5251;52.112;8.606;2022-11-12T10:42:02;9.25;;;8.15;;
10410;SDS011;5251;52.112;8.606;2022-11-12T10:44:34;10.20;;;8.32;;
10410;SDS011;5251;52.112;8.606;2022-11-12T10:50:13;8.82;;;7.93;;
10410;SDS011;5251;52.112;8.606;2022-11-12T10:52:51;9.02;;;7.43;;
10410;SDS011;5251;52.112;8.606;2022-11-12T10:55:29;9.45;;;7.53;;
10410;SDS011;5251;52.112;8.606;2022-11-12T10:58:11;14.55;;;12.18;;
10410;SDS011;5251;52.112;8.606;2022-11-12T11:00:51;10.35;;;7.63;;
10410;SDS011;5251;52.112;8.606;2022-11-12T11:04:14;8.70;;;7.35;;
10410;SDS011;5251;52.112;8.606;2022-11-12T11:13:43;9.25;;;7.43;;
10410;SDS011;5251;52.112;8.606;2022-11-12T11:16:15;9.60;;;7.72;;
10410;SDS011;5251;52.112;8.606;2022-11-12T11:18:48;7.18;;;6.35;;
10410;SDS011;5251;52.112;8.606;2022-11-12T11:34:55;7.50;;;6.15;;
10410;SDS011;5251;52.112;8.606;2022-11-12T11:37:28;7.57;;;6.85;;
10410;SDS011;5251;52.112;8.606;2022-11-12T11:40:09;6.95;;;5.90;;
10410;SDS011;5251;52.112;8.606;2022-11-12T11:56:33;8.00;;;6.20;;
10410;SDS011;5251;52.112;8.606;2022-11-12T12:02:56;6.20;;;5.60;;
10410;SDS011;5251;52.112;8.606;2022-11-12T12:10:50;5.22;;;4.72;;
10410;SDS011;5251;52.112;8.606;2022-11-12T12:21:43;5.82;;;4.97;;
10410;SDS011;5251;52.112;8.606;2022-11-12T12:24:22;4.90;;;4.40;;
10410;SDS011;5251;52.112;8.606;2022-11-12T12:29:55;5.03;;;4.53;;
10410;SDS011;5251;52.112;8.606;2022-11-12T12:32:32;4.40;;;4.00;;
10410;SDS011;5251;52.112;8.606;2022-11-12T12:38:00;4.75;;;4.25;;
10410;SDS011;5251;52.112;8.606;2022-11-12T12:43:34;6.60;;;4.35;;
10410;SDS011;5251;52.112;8.606;2022-11-12T12:46:16;4.68;;;4.25;;
10410;SDS011;5251;52.112;8.606;2022-11-12T12:48:46;4.72;;;4.32;;
10410;SDS011;5251;52.112;8.606;2022-11-12T12:51:15;5.75;;;4.78;;
10410;SDS011;5251;52.112;8.606;2022-11-12T12:53:41;6.03;;;4.60;;
10410;SDS011;5251;52.112;8.606;2022-11-12T13:01:06;5.43;;;4.65;;
10410;SDS011;5251;52.112;8.606;2022-11-12T13:16:56;5.25;;;4.60;;
10410;SDS011;5251;52.112;8.606;2022-11-12T13:19:28;5.28;;;4.60;;
10410;SDS011;5251;52.112;8.606;2022-11-12T13:32:53;4.95;;;4.30;;
10410;SDS011;5251;52.112;8.606;2022-11-12T13:37:58;4.50;;;4.10;;
10410;SDS011;5251;52.112;8.606;2022-11-12T13:48:45;5.22;;;4.68;;
10410;SDS011;5251;52.112;8.606;2022-11-12T13:51:17;5.50;;;4.60;;
10410;SDS011;5251;52.112;8.606;2022-11-12T13:53:53;4.95;;;4.40;;
10410;SDS011;5251;52.112;8.606;2022-11-12T13:59:12;4.82;;;4.32;;
10410;SDS011;5251;52.112;8.606;2022-11-12T14:01:39;4.43;;;4.03;;
10410;SDS011;5251;52.112;8.606;2022-11-12T14:04:06;4.55;;;4.07;;
10410;SDS011;5251;52.112;8.606;2022-11-12T14:06:45;4.57;;;3.97;;
10410;SDS011;5251;52.112;8.606;2022-11-12T14:15:26;4.47;;;4.05;;
10410;SDS011;5251;52.112;8.606;2022-11-12T14:20:51;4.40;;;4.00;;
10410;SDS011;5251;52.112;8.606;2022-11-12T14:23:18;5.13;;;3.83;;
10410;SDS011;5251;52.112;8.606;2022-11-12T14:25:54;4.63;;;4.13;;
10410;SDS011;5251;52.112;8.606;2022-11-12T14:28:28;4.60;;;4.18;;
10410;SDS011;5251;52.112;8.606;2022-11-12T14:30:58;4.55;;;4.00;;
10410;SDS011;5251;52.112;8.606;2022-11-12T14:33:25;4.32;;;3.92;;
10410;SDS011;5251;52.112;8.606;2022-11-12T14:35:53;4.32;;;3.92;;
10410;SDS011;5251;52.112;8.606;2022-11-12T14:38:31;4.40;;;4.00;;
10410;SDS011;5251;52.112;8.606;2022-11-12T14:43:50;6.03;;;4.20;;
10410;SDS011;5251;52.112;8.606;2022-11-12T14:49:00;4.93;;;4.47;;
10410;SDS011;5251;52.112;8.606;2022-11-12T14:51:29;4.28;;;3.88;;
10410;SDS011;5251;52.112;8.606;2022-11-12T14:54:01;4.53;;;4.00;;
10410;SDS011;5251;52.112;8.606;2022-11-12T14:56:32;5.72;;;4.78;;
10410;SDS011;5251;52.112;8.606;2022-11-12T14:59:02;6.05;;;4.90;;
10410;SDS011;5251;52.112;8.606;2022-11-12T15:01:38;4.78;;;4.28;;
10410;SDS011;5251;52.112;8.606;2022-11-12T15:06:36;5.90;;;4.40;;
10410;SDS011;5251;52.112;8.606;2022-11-12T15:09:02;5.30;;;4.30;;
10410;SDS011;5251;52.112;8.606;2022-11-12T15:11:30;5.63;;;4.20;;
10410;SDS011;5251;52.112;8.606;2022-11-12T15:14:00;10.93;;;8.55;;
10410;SDS011;5251;52.112;8.606;2022-11-12T15:16:32;10.88;;;8.63;;
10410;SDS011;5251;52.112;8.606;2022-11-12T15:19:03;6.78;;;5.60;;
10410;SDS011;5251;52.112;8.606;2022-11-12T15:21:32;29.58;;;21.83;;
10410;SDS011;5251;52.112;8.606;2022-11-12T15:26:45;7.93;;;6.32;;
10410;SDS011;5251;52.112;8.606;2022-11-12T15:29:30;31.85;;;22.92;;
10410;SDS011;5251;52.112;8.606;2022-11-12T15:34:28;19.75;;;13.23;;
10410;SDS011;5251;52.112;8.606;2022-11-12T15:37:10;10.18;;;7.55;;
10410;SDS011;5251;52.112;8.606;2022-11-12T15:39:44;10.68;;;8.38;;
10410;SDS011;5251;52.112;8.606;2022-11-12T15:42:36;17.52;;;14.48;;
10410;SDS011;5251;52.112;8.606;2022-11-12T15:45:02;39.63;;;28.05;;
10410;SDS011;5251;52.112;8.606;2022-11-12T15:47:34;41.30;;;30.70;;
10410;SDS011;5251;52.112;8.606;2022-11-12T15:50:00;24.17;;;19.45;;
10410;SDS011;5251;52.112;8.606;2022-11-12T15:52:44;18.60;;;13.73;;
10410;SDS011;5251;52.112;8.606;2022-11-12T15:55:10;16.52;;;12.15;;
10410;SDS011;5251;52.112;8.606;2022-11-12T15:57:41;18.63;;;14.13;;
10410;SDS011;5251;52.112;8.606;2022-11-12T16:00:13;26.48;;;20.15;;
10410;SDS011;5251;52.112;8.606;2022-11-12T16:02:43;19.25;;;15.50;;
10410;SDS011;5251;52.112;8.606;2022-11-12T16:05:15;15.05;;;11.25;;
10410;SDS011;5251;52.112;8.606;2022-11-12T16:07:41;10.35;;;8.65;;
10410;SDS011;5251;52.112;8.606;2022-11-12T16:10:16;9.10;;;7.30;;
10410;SDS011;5251;52.112;8.606;2022-11-12T16:12:43;8.70;;;6.93;;
10410;SDS011;5251;52.112;8.606;2022-11-12T16:15:12;7.75;;;6.00;;
10410;SDS011;5251;52.112;8.606;2022-11-12T16:17:39;9.38;;;6.90;;
10410;SDS011;5251;52.112;8.606;2022-11-12T16:20:18;7.40;;;6.03;;
10410;SDS011;5251;52.112;8.606;2022-11-12T16:22:46;6.93;;;6.18;;
10410;SDS011;5251;52.112;8.606;2022-11-12T16:25:12;6.75;;;5.97;;
10410;SDS011;5251;52.112;8.606;2022-11-12T16:27:38;7.30;;;5.88;;
10410;SDS011;5251;52.112;8.606;2022-11-12T16:30:18;8.55;;;6.35;;
10410;SDS011;5251;52.112;8.606;2022-11-12T16:32:48;8.23;;;6.80;;
10410;SDS011;5251;52.112;8.606;2022-11-12T16:35:14;10.45;;;7.55;;
10410;SDS011;5251;52.112;8.606;2022-11-12T16:37:41;10.50;;;8.07;;
10410;SDS011;5251;52.112;8.606;2022-11-12T16:40:11;11.00;;;7.75;;
10410;SDS011;5251;52.112;8.606;2022-11-12T16:42:48;10.48;;;7.88;;
10410;SDS011;5251;52.112;8.606;2022-11-12T16:45:14;9.57;;;7.18;;
10410;SDS011;5251;52.112;8.606;2022-11-12T16:47:43;8.57;;;7.05;;
10410;SDS011;5251;52.112;8.606;2022-11-12T16:50:15;6.78;;;5.95;;
10410;SDS011;5251;52.112;8.606;2022-11-12T16:52:43;7.13;;;5.93;;
10410;SDS011;5251;52.112;8.606;2022-11-12T16:55:08;8.68;;;6.57;;
10410;SDS011;5251;52.112;8.606;2022-11-12T16:57:34;7.85;;;5.97;;
10410;SDS011;5251;52.112;8.606;2022-11-12T17:00:00;8.10;;;6.35;;
10410;SDS011;5251;52.112;8.606;2022-11-12T17:02:26;6.25;;;5.60;;
10410;SDS011;5251;52.112;8.606;2022-11-12T17:04:52;9.02;;;6.53;;
10410;SDS011;5251;52.112;8.606;2022-11-12T17:07:18;10.27;;;7.63;;
10410;SDS011;5251;52.112;8.606;2022-11-12T17:09:43;9.40;;;7.75;;
10410;SDS011;5251;52.112;8.606;2022-11-12T17:12:09;13.10;;;9.55;;
10410;SDS011;5251;52.112;8.606;2022-11-12T17:14:34;12.52;;;10.25;;
10410;SDS011;5251;52.112;8.606;2022-11-12T17:17:00;14.63;;;10.90;;
10410;SDS011;5251;52.112;8.606;2022-11-12T17:19:26;15.05;;;10.95;;
10410;SDS011;5251;52.112;8.606;2022-11-12T17:21:51;16.17;;;11.73;;
10410;SDS011;5251;52.112;8.606;2022-11-12T17:24:17;15.88;;;11.80;;
10410;SDS011;5251;52.112;8.606;2022-11-12T17:26:43;15.75;;;11.85;;
10410;SDS011;5251;52.112;8.606;2022-11-12T17:29:09;14.68;;;10.38;;
10410;SDS011;5251;52.112;8.606;2022-11-12T17:31:35;13.70;;;10.10;;
10410;SDS011;5251;52.112;8.606;2022-11-12T17:34:02;14.68;;;9.98;;
10410;SDS011;5251;52.112;8.606;2022-11-12T17:36:29;14.18;;;10.32;;
10410;SDS011;5251;52.112;8.606;2022-11-12T17:38:55;13.75;;;10.23;;
10410;SDS011;5251;52.112;8.606;2022-11-12T17:41:22;38.72;;;34.22;;
10410;SDS011;5251;52.112;8.606;2022-11-12T17:43:58;31.63;;;26.40;;
10410;SDS011;5251;52.112;8.606;2022-11-12T17:46:24;32.22;;;28.75;;